sensor_id;sensor_type;location;lat;lon;timestamp;P1;durP1;ratioP1;P2;durP2;ratioP2
21800;SDS011;11062;51.164;16.924;2023-04-24T00:01:34;10.65;;;6.78;;
21800;SDS011;11062;51.164;16.924;2023-04-24T00:04:02;8.90;;;6.43;;
21800;SDS011;11062;51.164;16.924;2023-04-24T00:06:29;12.43;;;6.60;;
21800;SDS011;11062;51.164;16.924;2023-04-24T00:08:58;10.35;;;6.75;;
21800;SDS011;11062;51.164;16.924;2023-04-24T00:11:27;13.05;;;6.90;;
21800;SDS011;11062;51.164;16.924;2023-04-24T00:13:53;10.02;;;6.70;;
21800;SDS011;11062;51.164;16.924;2023-04-24T00:16:22;9.02;;;6.40;;
21800;SDS011;11062;51.164;16.924;2023-04-24T00:18:54;14.82;;;7.57;;
21800;SDS011;11062;51.164;16.924;2023-04-24T00:21:20;8.85;;;6.45;;
21800;SDS011;11062;51.164;16.924;2023-04-24T00:23:47;14.07;;;7.30;;
21800;SDS011;11062;51.164;16.924;2023-04-24T00:26:13;8.95;;;6.55;;
21800;SDS011;11062;51.164;16.924;2023-04-24T00:28:39;11.30;;;6.32;;
21800;SDS011;11062;51.164;16.924;2023-04-24T00:31:05;11.10;;;6.35;;
21800;SDS011;11062;51.164;16.924;2023-04-24T00:33:35;12.18;;;7.25;;
21800;SDS011;11062;51.164;16.924;2023-04-24T00:36:01;9.32;;;6.88;;
21800;SDS011;11062;51.164;16.924;2023-04-24T00:38:27;9.68;;;7.47;;
21800;SDS011;11062;51.164;16.924;2023-04-24T00:40:56;10.02;;;6.93;;
21800;SDS011;11062;51.164;16.924;2023-04-24T00:43:22;14.73;;;8.13;;
21800;SDS011;11062;51.164;16.924;2023-04-24T00:45:51;10.45;;;7.90;;
21800;SDS011;11062;51.164;16.924;2023-04-24T00:48:17;12.95;;;8.43;;
21800;SDS011;11062;51.164;16.924;2023-04-24T00:50:43;11.43;;;8.73;;
21800;SDS011;11062;51.164;16.924;2023-04-24T00:53:10;12.40;;;7.95;;
21800;SDS011;11062;51.164;16.924;2023-04-24T00:55:36;13.38;;;8.63;;
21800;SDS011;11062;51.164;16.924;2023-04-24T00:58:02;12.32;;;8.57;;
21800;SDS011;11062;51.164;16.924;2023-04-24T01:00:29;15.07;;;8.63;;
21800;SDS011;11062;51.164;16.924;2023-04-24T01:02:56;15.18;;;8.95;;
21800;SDS011;11062;51.164;16.924;2023-04-24T01:05:24;12.70;;;8.07;;
21800;SDS011;11062;51.164;16.924;2023-04-24T01:07:51;12.50;;;9.68;;
21800;SDS011;11062;51.164;16.924;2023-04-24T01:10:17;12.23;;;8.70;;
21800;SDS011;11062;51.164;16.924;2023-04-24T01:12:45;13.82;;;9.50;;
21800;SDS011;11062;51.164;16.924;2023-04-24T01:15:11;15.70;;;10.35;;
21800;SDS011;11062;51.164;16.924;2023-04-24T01:17:40;16.35;;;9.88;;
21800;SDS011;11062;51.164;16.924;2023-04-24T01:20:06;14.38;;;9.23;;
21800;SDS011;11062;51.164;16.924;2023-04-24T01:22:35;14.05;;;8.70;;
21800;SDS011;11062;51.164;16.924;2023-04-24T01:25:04;17.75;;;9.63;;
21800;SDS011;11062;51.164;16.924;2023-04-24T01:27:30;13.68;;;9.20;;
21800;SDS011;11062;51.164;16.924;2023-04-24T01:29:57;14.77;;;10.07;;
21800;SDS011;11062;51.164;16.924;2023-04-24T01:32:29;14.80;;;9.48;;
21800;SDS011;11062;51.164;16.924;2023-04-24T01:34:55;12.77;;;9.40;;
21800;SDS011;11062;51.164;16.924;2023-04-24T01:37:21;14.38;;;10.00;;
21800;SDS011;11062;51.164;16.924;2023-04-24T01:39:47;14.25;;;9.30;;
21800;SDS011;11062;51.164;16.924;2023-04-24T01:42:13;12.85;;;9.88;;
21800;SDS011;11062;51.164;16.924;2023-04-24T01:44:40;15.77;;;9.85;;
21800;SDS011;11062;51.164;16.924;2023-04-24T01:47:09;16.75;;;9.82;;
21800;SDS011;11062;51.164;16.924;2023-04-24T01:49:41;16.52;;;9.50;;
21800;SDS011;11062;51.164;16.924;2023-04-24T01:52:07;14.02;;;10.05;;
21800;SDS011;11062;51.164;16.924;2023-04-24T01:54:33;18.35;;;9.80;;
21800;SDS011;11062;51.164;16.924;2023-04-24T01:56:59;15.38;;;10.65;;
21800;SDS011;11062;51.164;16.924;2023-04-24T01:59:27;16.55;;;10.02;;
21800;SDS011;11062;51.164;16.924;2023-04-24T02:01:57;15.43;;;10.65;;
21800;SDS011;11062;51.164;16.924;2023-04-24T02:04:27;13.45;;;10.23;;
21800;SDS011;11062;51.164;16.924;2023-04-24T02:06:55;13.70;;;10.15;;
21800;SDS011;11062;51.164;16.924;2023-04-24T02:09:21;12.35;;;9.77;;
21800;SDS011;11062;51.164;16.924;2023-04-24T02:11:50;15.88;;;10.88;;
21800;SDS011;11062;51.164;16.924;2023-04-24T02:14:19;14.88;;;9.93;;
21800;SDS011;11062;51.164;16.924;2023-04-24T02:16:45;13.90;;;8.95;;
21800;SDS011;11062;51.164;16.924;2023-04-24T02:19:11;12.93;;;9.30;;
21800;SDS011;11062;51.164;16.924;2023-04-24T02:21:37;18.67;;;10.55;;
21800;SDS011;11062;51.164;16.924;2023-04-24T02:24:05;13.13;;;9.20;;
21800;SDS011;11062;51.164;16.924;2023-04-24T02:26:31;14.75;;;9.70;;
21800;SDS011;11062;51.164;16.924;2023-04-24T02:29:00;18.17;;;9.82;;
21800;SDS011;11062;51.164;16.924;2023-04-24T02:31:29;14.50;;;9.18;;
21800;SDS011;11062;51.164;16.924;2023-04-24T02:33:58;15.07;;;10.27;;
21800;SDS011;11062;51.164;16.924;2023-04-24T02:36:26;14.00;;;10.10;;
21800;SDS011;11062;51.164;16.924;2023-04-24T02:38:56;17.35;;;10.30;;
21800;SDS011;11062;51.164;16.924;2023-04-24T02:41:26;15.35;;;9.95;;
21800;SDS011;11062;51.164;16.924;2023-04-24T02:44:03;17.92;;;10.25;;
21800;SDS011;11062;51.164;16.924;2023-04-24T02:46:29;13.80;;;9.95;;
21800;SDS011;11062;51.164;16.924;2023-04-24T02:48:58;14.02;;;10.13;;
21800;SDS011;11062;51.164;16.924;2023-04-24T02:51:25;15.93;;;10.27;;
21800;SDS011;11062;51.164;16.924;2023-04-24T02:53:54;15.13;;;10.73;;
21800;SDS011;11062;51.164;16.924;2023-04-24T02:56:22;18.08;;;10.57;;
21800;SDS011;11062;51.164;16.924;2023-04-24T02:58:48;13.10;;;9.05;;
21800;SDS011;11062;51.164;16.924;2023-04-24T03:01:17;14.50;;;9.75;;
21800;SDS011;11062;51.164;16.924;2023-04-24T03:03:43;16.13;;;10.60;;
21800;SDS011;11062;51.164;16.924;2023-04-24T03:06:18;13.30;;;9.13;;
21800;SDS011;11062;51.164;16.924;2023-04-24T03:08:50;15.95;;;10.02;;
21800;SDS011;11062;51.164;16.924;2023-04-24T03:11:24;12.43;;;8.95;;
21800;SDS011;11062;51.164;16.924;2023-04-24T03:13:50;12.65;;;8.85;;
21800;SDS011;11062;51.164;16.924;2023-04-24T03:16:16;16.15;;;9.25;;
21800;SDS011;11062;51.164;16.924;2023-04-24T03:18:42;13.65;;;9.43;;
21800;SDS011;11062;51.164;16.924;2023-04-24T03:21:11;12.30;;;8.77;;
21800;SDS011;11062;51.164;16.924;2023-04-24T03:23:37;11.10;;;8.63;;
21800;SDS011;11062;51.164;16.924;2023-04-24T03:26:06;11.77;;;8.00;;
21800;SDS011;11062;51.164;16.924;2023-04-24T03:28:32;12.60;;;8.50;;
21800;SDS011;11062;51.164;16.924;2023-04-24T03:30:58;11.45;;;8.13;;
21800;SDS011;11062;51.164;16.924;2023-04-24T03:33:24;12.27;;;8.88;;
21800;SDS011;11062;51.164;16.924;2023-04-24T03:35:49;10.60;;;7.80;;
21800;SDS011;11062;51.164;16.924;2023-04-24T03:38:18;12.95;;;8.52;;
21800;SDS011;11062;51.164;16.924;2023-04-24T03:40:47;10.95;;;8.05;;
21800;SDS011;11062;51.164;16.924;2023-04-24T03:43:13;11.77;;;7.85;;
21800;SDS011;11062;51.164;16.924;2023-04-24T03:45:41;9.30;;;6.88;;
21800;SDS011;11062;51.164;16.924;2023-04-24T03:48:10;14.93;;;8.32;;
21800;SDS011;11062;51.164;16.924;2023-04-24T03:50:39;10.57;;;8.07;;
21800;SDS011;11062;51.164;16.924;2023-04-24T03:53:05;12.25;;;7.78;;
21800;SDS011;11062;51.164;16.924;2023-04-24T03:55:31;15.88;;;8.13;;
21800;SDS011;11062;51.164;16.924;2023-04-24T03:57:57;12.63;;;8.40;;
21800;SDS011;11062;51.164;16.924;2023-04-24T04:00:23;11.25;;;8.02;;
21800;SDS011;11062;51.164;16.924;2023-04-24T04:02:51;13.32;;;8.15;;
21800;SDS011;11062;51.164;16.924;2023-04-24T04:05:17;11.07;;;8.20;;
21800;SDS011;11062;51.164;16.924;2023-04-24T04:07:43;11.95;;;7.97;;
21800;SDS011;11062;51.164;16.924;2023-04-24T04:10:12;12.25;;;8.13;;
21800;SDS011;11062;51.164;16.924;2023-04-24T04:12:38;10.50;;;7.80;;
21800;SDS011;11062;51.164;16.924;2023-04-24T04:15:07;12.13;;;8.27;;
21800;SDS011;11062;51.164;16.924;2023-04-24T04:17:33;11.70;;;8.68;;
21800;SDS011;11062;51.164;16.924;2023-04-24T04:19:59;11.32;;;8.38;;
21800;SDS011;11062;51.164;16.924;2023-04-24T04:22:26;12.30;;;8.25;;
21800;SDS011;11062;51.164;16.924;2023-04-24T04:24:52;16.13;;;9.45;;
21800;SDS011;11062;51.164;16.924;2023-04-24T04:27:18;16.33;;;9.10;;
21800;SDS011;11062;51.164;16.924;2023-04-24T04:29:44;12.55;;;9.07;;
21800;SDS011;11062;51.164;16.924;2023-04-24T04:32:10;13.02;;;9.43;;
21800;SDS011;11062;51.164;16.924;2023-04-24T04:34:36;12.48;;;9.20;;
21800;SDS011;11062;51.164;16.924;2023-04-24T04:37:02;14.30;;;9.23;;
21800;SDS011;11062;51.164;16.924;2023-04-24T04:39:28;15.68;;;9.98;;
21800;SDS011;11062;51.164;16.924;2023-04-24T04:41:55;14.50;;;9.52;;
21800;SDS011;11062;51.164;16.924;2023-04-24T04:44:21;12.32;;;8.82;;
21800;SDS011;11062;51.164;16.924;2023-04-24T04:46:48;16.65;;;9.63;;
21800;SDS011;11062;51.164;16.924;2023-04-24T04:49:18;13.30;;;9.20;;
21800;SDS011;11062;51.164;16.924;2023-04-24T04:51:46;12.77;;;9.13;;
21800;SDS011;11062;51.164;16.924;2023-04-24T04:54:22;16.75;;;9.75;;
21800;SDS011;11062;51.164;16.924;2023-04-24T04:56:51;18.40;;;9.98;;
21800;SDS011;11062;51.164;16.924;2023-04-24T04:59:20;16.27;;;10.77;;
21800;SDS011;11062;51.164;16.924;2023-04-24T05:01:46;15.32;;;9.50;;
21800;SDS011;11062;51.164;16.924;2023-04-24T05:04:15;13.32;;;9.38;;
21800;SDS011;11062;51.164;16.924;2023-04-24T05:06:41;16.52;;;9.30;;
21800;SDS011;11062;51.164;16.924;2023-04-24T05:09:07;10.75;;;8.27;;
21800;SDS011;11062;51.164;16.924;2023-04-24T05:11:35;15.93;;;9.75;;
21800;SDS011;11062;51.164;16.924;2023-04-24T05:14:01;16.85;;;9.68;;
21800;SDS011;11062;51.164;16.924;2023-04-24T05:16:27;16.23;;;9.10;;
21800;SDS011;11062;51.164;16.924;2023-04-24T05:18:53;15.80;;;9.40;;
21800;SDS011;11062;51.164;16.924;2023-04-24T05:21:20;14.93;;;9.55;;
21800;SDS011;11062;51.164;16.924;2023-04-24T05:23:49;14.43;;;8.82;;
21800;SDS011;11062;51.164;16.924;2023-04-24T05:26:18;13.13;;;8.82;;
21800;SDS011;11062;51.164;16.924;2023-04-24T05:28:44;10.27;;;7.80;;
21800;SDS011;11062;51.164;16.924;2023-04-24T05:31:10;11.30;;;8.68;;
21800;SDS011;11062;51.164;16.924;2023-04-24T05:33:40;11.50;;;7.97;;
21800;SDS011;11062;51.164;16.924;2023-04-24T05:36:10;10.52;;;8.38;;
21800;SDS011;11062;51.164;16.924;2023-04-24T05:38:39;9.40;;;7.72;;
21800;SDS011;11062;51.164;16.924;2023-04-24T05:41:05;11.93;;;8.00;;
21800;SDS011;11062;51.164;16.924;2023-04-24T05:43:31;10.07;;;7.28;;
21800;SDS011;11062;51.164;16.924;2023-04-24T05:46:04;10.57;;;7.40;;
21800;SDS011;11062;51.164;16.924;2023-04-24T05:48:30;11.30;;;7.50;;
21800;SDS011;11062;51.164;16.924;2023-04-24T05:50:56;10.68;;;7.57;;
21800;SDS011;11062;51.164;16.924;2023-04-24T05:53:22;10.35;;;7.50;;
21800;SDS011;11062;51.164;16.924;2023-04-24T05:55:48;12.48;;;7.03;;
21800;SDS011;11062;51.164;16.924;2023-04-24T05:58:16;9.38;;;6.20;;
21800;SDS011;11062;51.164;16.924;2023-04-24T06:00:48;11.95;;;6.78;;
21800;SDS011;11062;51.164;16.924;2023-04-24T06:03:14;10.25;;;6.53;;
21800;SDS011;11062;51.164;16.924;2023-04-24T06:05:46;11.30;;;7.18;;
21800;SDS011;11062;51.164;16.924;2023-04-24T06:08:15;17.98;;;7.70;;
21800;SDS011;11062;51.164;16.924;2023-04-24T06:10:44;9.43;;;6.90;;
21800;SDS011;11062;51.164;16.924;2023-04-24T06:13:10;8.32;;;6.03;;
21800;SDS011;11062;51.164;16.924;2023-04-24T06:15:37;8.48;;;6.13;;
21800;SDS011;11062;51.164;16.924;2023-04-24T06:18:03;13.82;;;6.50;;
21800;SDS011;11062;51.164;16.924;2023-04-24T06:20:29;16.52;;;6.85;;
21800;SDS011;11062;51.164;16.924;2023-04-24T06:22:55;9.55;;;6.35;;
21800;SDS011;11062;51.164;16.924;2023-04-24T06:25:21;10.45;;;6.57;;
21800;SDS011;11062;51.164;16.924;2023-04-24T06:27:49;8.20;;;6.18;;
21800;SDS011;11062;51.164;16.924;2023-04-24T06:30:18;9.23;;;6.75;;
21800;SDS011;11062;51.164;16.924;2023-04-24T06:32:44;13.60;;;6.45;;
21800;SDS011;11062;51.164;16.924;2023-04-24T06:35:13;11.88;;;6.28;;
21800;SDS011;11062;51.164;16.924;2023-04-24T06:37:42;10.88;;;5.82;;
21800;SDS011;11062;51.164;16.924;2023-04-24T06:40:11;10.00;;;5.65;;
21800;SDS011;11062;51.164;16.924;2023-04-24T06:42:37;9.05;;;5.75;;
21800;SDS011;11062;51.164;16.924;2023-04-24T06:45:04;9.30;;;5.65;;
21800;SDS011;11062;51.164;16.924;2023-04-24T06:47:30;8.80;;;6.05;;
21800;SDS011;11062;51.164;16.924;2023-04-24T06:49:57;11.45;;;6.13;;
21800;SDS011;11062;51.164;16.924;2023-04-24T06:52:23;9.75;;;6.15;;
21800;SDS011;11062;51.164;16.924;2023-04-24T06:54:49;8.88;;;5.97;;
21800;SDS011;11062;51.164;16.924;2023-04-24T06:57:15;10.13;;;5.93;;
21800;SDS011;11062;51.164;16.924;2023-04-24T06:59:44;8.85;;;5.75;;
21800;SDS011;11062;51.164;16.924;2023-04-24T07:02:09;8.20;;;5.50;;
21800;SDS011;11062;51.164;16.924;2023-04-24T07:04:35;7.40;;;5.38;;
21800;SDS011;11062;51.164;16.924;2023-04-24T07:07:02;8.05;;;5.78;;
21800;SDS011;11062;51.164;16.924;2023-04-24T07:09:27;10.32;;;5.97;;
21800;SDS011;11062;51.164;16.924;2023-04-24T07:11:53;13.65;;;6.47;;
21800;SDS011;11062;51.164;16.924;2023-04-24T07:14:22;8.75;;;5.47;;
21800;SDS011;11062;51.164;16.924;2023-04-24T07:16:48;12.45;;;6.05;;
21800;SDS011;11062;51.164;16.924;2023-04-24T07:19:15;12.60;;;6.70;;
21800;SDS011;11062;51.164;16.924;2023-04-24T07:21:41;7.88;;;5.93;;
21800;SDS011;11062;51.164;16.924;2023-04-24T07:24:07;12.48;;;5.85;;
21800;SDS011;11062;51.164;16.924;2023-04-24T07:26:38;8.80;;;5.35;;
21800;SDS011;11062;51.164;16.924;2023-04-24T07:29:12;10.68;;;5.47;;
21800;SDS011;11062;51.164;16.924;2023-04-24T07:31:42;7.85;;;4.85;;
21800;SDS011;11062;51.164;16.924;2023-04-24T07:34:08;8.02;;;5.03;;
21800;SDS011;11062;51.164;16.924;2023-04-24T07:36:34;7.07;;;5.15;;
21800;SDS011;11062;51.164;16.924;2023-04-24T07:39:05;6.60;;;4.78;;
21800;SDS011;11062;51.164;16.924;2023-04-24T07:41:35;5.57;;;4.57;;
21800;SDS011;11062;51.164;16.924;2023-04-24T07:44:01;5.35;;;3.60;;
21800;SDS011;11062;51.164;16.924;2023-04-24T07:46:27;5.20;;;3.95;;
21800;SDS011;11062;51.164;16.924;2023-04-24T07:49:00;4.65;;;3.60;;
21800;SDS011;11062;51.164;16.924;2023-04-24T07:51:29;3.45;;;3.15;;
21800;SDS011;11062;51.164;16.924;2023-04-24T07:54:03;4.20;;;3.00;;
21800;SDS011;11062;51.164;16.924;2023-04-24T07:56:32;3.97;;;2.80;;
21800;SDS011;11062;51.164;16.924;2023-04-24T07:59:01;3.63;;;2.80;;
21800;SDS011;11062;51.164;16.924;2023-04-24T08:01:30;3.53;;;2.97;;
21800;SDS011;11062;51.164;16.924;2023-04-24T08:03:59;3.53;;;3.00;;
21800;SDS011;11062;51.164;16.924;2023-04-24T08:06:25;3.78;;;2.90;;
21800;SDS011;11062;51.164;16.924;2023-04-24T08:08:55;2.72;;;2.28;;
21800;SDS011;11062;51.164;16.924;2023-04-24T08:11:25;4.78;;;2.40;;
21800;SDS011;11062;51.164;16.924;2023-04-24T08:13:57;4.57;;;2.78;;
21800;SDS011;11062;51.164;16.924;2023-04-24T08:16:27;3.20;;;2.40;;
21800;SDS011;11062;51.164;16.924;2023-04-24T08:18:57;3.33;;;2.67;;
21800;SDS011;11062;51.164;16.924;2023-04-24T08:21:29;3.15;;;2.60;;
21800;SDS011;11062;51.164;16.924;2023-04-24T08:23:58;3.20;;;2.80;;
21800;SDS011;11062;51.164;16.924;2023-04-24T08:26:24;3.08;;;2.78;;
21800;SDS011;11062;51.164;16.924;2023-04-24T08:28:56;3.10;;;2.55;;
21800;SDS011;11062;51.164;16.924;2023-04-24T08:31:22;4.55;;;2.97;;
21800;SDS011;11062;51.164;16.924;2023-04-24T08:34:04;2.88;;;2.63;;
21800;SDS011;11062;51.164;16.924;2023-04-24T08:36:30;5.25;;;2.90;;
21800;SDS011;11062;51.164;16.924;2023-04-24T08:38:58;3.67;;;3.00;;
21800;SDS011;11062;51.164;16.924;2023-04-24T08:41:29;6.53;;;3.17;;
21800;SDS011;11062;51.164;16.924;2023-04-24T08:43:56;3.28;;;2.97;;
21800;SDS011;11062;51.164;16.924;2023-04-24T08:46:24;5.30;;;3.45;;
21800;SDS011;11062;51.164;16.924;2023-04-24T08:48:51;4.15;;;3.13;;
21800;SDS011;11062;51.164;16.924;2023-04-24T08:51:24;4.47;;;3.22;;
21800;SDS011;11062;51.164;16.924;2023-04-24T08:53:53;3.53;;;2.72;;
21800;SDS011;11062;51.164;16.924;2023-04-24T08:56:23;5.43;;;2.85;;
21800;SDS011;11062;51.164;16.924;2023-04-24T08:58:53;3.55;;;3.20;;
21800;SDS011;11062;51.164;16.924;2023-04-24T09:01:22;7.75;;;4.00;;
21800;SDS011;11062;51.164;16.924;2023-04-24T09:03:50;4.50;;;2.90;;
21800;SDS011;11062;51.164;16.924;2023-04-24T09:06:18;3.70;;;2.92;;
21800;SDS011;11062;51.164;16.924;2023-04-24T09:11:21;3.50;;;3.13;;
21800;SDS011;11062;51.164;16.924;2023-04-24T09:13:54;8.75;;;3.30;;
21800;SDS011;11062;51.164;16.924;2023-04-24T09:16:28;11.40;;;3.63;;
21800;SDS011;11062;51.164;16.924;2023-04-24T09:18:58;5.82;;;3.10;;
21800;SDS011;11062;51.164;16.924;2023-04-24T09:21:25;4.65;;;3.70;;
21800;SDS011;11062;51.164;16.924;2023-04-24T09:24:04;4.93;;;3.50;;
21800;SDS011;11062;51.164;16.924;2023-04-24T09:26:39;4.90;;;3.35;;
21800;SDS011;11062;51.164;16.924;2023-04-24T09:29:06;5.20;;;3.05;;
21800;SDS011;11062;51.164;16.924;2023-04-24T09:31:34;6.20;;;3.45;;
21800;SDS011;11062;51.164;16.924;2023-04-24T09:34:03;6.22;;;3.22;;
21800;SDS011;11062;51.164;16.924;2023-04-24T09:36:33;5.38;;;4.30;;
21800;SDS011;11062;51.164;16.924;2023-04-24T09:39:06;6.95;;;3.53;;
21800;SDS011;11062;51.164;16.924;2023-04-24T09:41:36;5.75;;;3.78;;
21800;SDS011;11062;51.164;16.924;2023-04-24T09:44:15;7.40;;;4.05;;
21800;SDS011;11062;51.164;16.924;2023-04-24T09:46:57;5.35;;;3.83;;
21800;SDS011;11062;51.164;16.924;2023-04-24T09:49:27;5.40;;;3.58;;
21800;SDS011;11062;51.164;16.924;2023-04-24T09:52:05;3.67;;;3.30;;
21800;SDS011;11062;51.164;16.924;2023-04-24T09:54:31;4.68;;;2.88;;
21800;SDS011;11062;51.164;16.924;2023-04-24T09:56:58;6.93;;;3.70;;
21800;SDS011;11062;51.164;16.924;2023-04-24T09:59:25;4.05;;;3.58;;
21800;SDS011;11062;51.164;16.924;2023-04-24T10:01:51;3.40;;;3.10;;
21800;SDS011;11062;51.164;16.924;2023-04-24T10:04:24;7.80;;;3.60;;
21800;SDS011;11062;51.164;16.924;2023-04-24T10:06:52;8.82;;;3.45;;
21800;SDS011;11062;51.164;16.924;2023-04-24T10:09:24;4.95;;;3.20;;
21800;SDS011;11062;51.164;16.924;2023-04-24T10:11:54;4.25;;;3.60;;
21800;SDS011;11062;51.164;16.924;2023-04-24T10:14:23;6.43;;;4.03;;
21800;SDS011;11062;51.164;16.924;2023-04-24T10:16:54;4.97;;;4.10;;
21800;SDS011;11062;51.164;16.924;2023-04-24T10:19:21;5.90;;;4.13;;
21800;SDS011;11062;51.164;16.924;2023-04-24T10:21:51;7.43;;;4.05;;
21800;SDS011;11062;51.164;16.924;2023-04-24T10:24:19;5.15;;;3.90;;
21800;SDS011;11062;51.164;16.924;2023-04-24T10:26:53;6.22;;;4.03;;
21800;SDS011;11062;51.164;16.924;2023-04-24T10:29:20;8.15;;;4.20;;
21800;SDS011;11062;51.164;16.924;2023-04-24T10:31:47;6.50;;;3.83;;
21800;SDS011;11062;51.164;16.924;2023-04-24T10:34:14;6.38;;;4.00;;
21800;SDS011;11062;51.164;16.924;2023-04-24T10:36:46;5.22;;;4.00;;
21800;SDS011;11062;51.164;16.924;2023-04-24T10:39:15;8.25;;;4.28;;
21800;SDS011;11062;51.164;16.924;2023-04-24T10:41:50;6.15;;;4.05;;
21800;SDS011;11062;51.164;16.924;2023-04-24T10:44:16;7.88;;;4.80;;
21800;SDS011;11062;51.164;16.924;2023-04-24T10:46:42;5.10;;;4.13;;
21800;SDS011;11062;51.164;16.924;2023-04-24T10:49:10;4.95;;;4.13;;
21800;SDS011;11062;51.164;16.924;2023-04-24T10:51:49;4.35;;;3.60;;
21800;SDS011;11062;51.164;16.924;2023-04-24T10:54:45;6.97;;;4.05;;
21800;SDS011;11062;51.164;16.924;2023-04-24T10:59:48;5.60;;;3.90;;
21800;SDS011;11062;51.164;16.924;2023-04-24T11:02:16;5.15;;;3.92;;
21800;SDS011;11062;51.164;16.924;2023-04-24T11:04:42;5.15;;;3.72;;
21800;SDS011;11062;51.164;16.924;2023-04-24T11:07:10;3.97;;;3.40;;
21800;SDS011;11062;51.164;16.924;2023-04-24T11:09:36;4.82;;;3.60;;
21800;SDS011;11062;51.164;16.924;2023-04-24T11:12:14;5.47;;;3.95;;
21800;SDS011;11062;51.164;16.924;2023-04-24T11:17:37;8.90;;;4.40;;
21800;SDS011;11062;51.164;16.924;2023-04-24T11:20:15;6.78;;;5.25;;
21800;SDS011;11062;51.164;16.924;2023-04-24T11:22:43;6.40;;;4.78;;
21800;SDS011;11062;51.164;16.924;2023-04-24T11:25:12;6.35;;;5.00;;
21800;SDS011;11062;51.164;16.924;2023-04-24T11:27:42;5.28;;;4.57;;
21800;SDS011;11062;51.164;16.924;2023-04-24T11:30:19;6.25;;;4.68;;
21800;SDS011;11062;51.164;16.924;2023-04-24T11:32:51;5.63;;;4.70;;
21800;SDS011;11062;51.164;16.924;2023-04-24T11:35:24;5.70;;;4.28;;
21800;SDS011;11062;51.164;16.924;2023-04-24T11:37:55;6.05;;;4.07;;
21800;SDS011;11062;51.164;16.924;2023-04-24T11:40:28;5.70;;;3.72;;
21800;SDS011;11062;51.164;16.924;2023-04-24T11:42:56;4.10;;;3.70;;
21800;SDS011;11062;51.164;16.924;2023-04-24T11:45:30;7.90;;;4.90;;
21800;SDS011;11062;51.164;16.924;2023-04-24T11:47:56;4.85;;;4.13;;
21800;SDS011;11062;51.164;16.924;2023-04-24T11:50:26;4.28;;;3.80;;
21800;SDS011;11062;51.164;16.924;2023-04-24T11:52:53;4.53;;;4.13;;
21800;SDS011;11062;51.164;16.924;2023-04-24T13:06:23;3.72;;;2.95;;
21800;SDS011;11062;51.164;16.924;2023-04-24T13:27:38;1.15;;;1.08;;
21800;SDS011;11062;51.164;16.924;2023-04-24T13:30:12;2.28;;;1.35;;
21800;SDS011;11062;51.164;16.924;2023-04-24T13:32:53;2.38;;;1.83;;
21800;SDS011;11062;51.164;16.924;2023-04-24T13:35:55;2.90;;;1.90;;
21800;SDS011;11062;51.164;16.924;2023-04-24T13:39:09;5.55;;;1.63;;
21800;SDS011;11062;51.164;16.924;2023-04-24T14:03:16;4.63;;;1.70;;
21800;SDS011;11062;51.164;16.924;2023-04-24T14:05:43;2.22;;;1.67;;
21800;SDS011;11062;51.164;16.924;2023-04-24T14:08:12;2.25;;;1.90;;
21800;SDS011;11062;51.164;16.924;2023-04-24T14:10:40;2.40;;;1.90;;
21800;SDS011;11062;51.164;16.924;2023-04-24T14:13:13;2.70;;;2.28;;
21800;SDS011;11062;51.164;16.924;2023-04-24T14:15:40;2.97;;;2.00;;
21800;SDS011;11062;51.164;16.924;2023-04-24T14:18:12;5.15;;;2.17;;
21800;SDS011;11062;51.164;16.924;2023-04-24T14:20:38;9.32;;;2.90;;
21800;SDS011;11062;51.164;16.924;2023-04-24T14:23:10;3.78;;;3.33;;
21800;SDS011;11062;51.164;16.924;2023-04-24T14:25:41;4.15;;;3.70;;
21800;SDS011;11062;51.164;16.924;2023-04-24T14:28:09;3.53;;;2.88;;
21800;SDS011;11062;51.164;16.924;2023-04-24T14:30:38;3.97;;;3.08;;
21800;SDS011;11062;51.164;16.924;2023-04-24T14:33:05;4.45;;;2.60;;
21800;SDS011;11062;51.164;16.924;2023-04-24T14:35:31;5.68;;;2.80;;
21800;SDS011;11062;51.164;16.924;2023-04-24T14:37:59;4.25;;;2.92;;
21800;SDS011;11062;51.164;16.924;2023-04-24T14:40:25;6.43;;;3.00;;
21800;SDS011;11062;51.164;16.924;2023-04-24T14:42:51;4.40;;;2.88;;
21800;SDS011;11062;51.164;16.924;2023-04-24T14:45:22;5.20;;;2.75;;
21800;SDS011;11062;51.164;16.924;2023-04-24T14:47:48;4.20;;;2.40;;
21800;SDS011;11062;51.164;16.924;2023-04-24T14:50:15;5.00;;;3.20;;
21800;SDS011;11062;51.164;16.924;2023-04-24T14:52:44;6.93;;;3.28;;
21800;SDS011;11062;51.164;16.924;2023-04-24T14:55:11;4.22;;;2.92;;
21800;SDS011;11062;51.164;16.924;2023-04-24T14:57:38;5.40;;;2.92;;
21800;SDS011;11062;51.164;16.924;2023-04-24T15:00:07;3.58;;;2.67;;
21800;SDS011;11062;51.164;16.924;2023-04-24T15:02:37;6.65;;;3.20;;
21800;SDS011;11062;51.164;16.924;2023-04-24T15:05:09;7.50;;;3.17;;
21800;SDS011;11062;51.164;16.924;2023-04-24T15:07:35;6.25;;;2.72;;
21800;SDS011;11062;51.164;16.924;2023-04-24T15:10:02;3.95;;;2.53;;
21800;SDS011;11062;51.164;16.924;2023-04-24T15:12:35;4.78;;;2.88;;
21800;SDS011;11062;51.164;16.924;2023-04-24T15:15:01;4.15;;;2.13;;
21800;SDS011;11062;51.164;16.924;2023-04-24T15:17:30;2.95;;;2.35;;
21800;SDS011;11062;51.164;16.924;2023-04-24T15:20:02;4.00;;;2.35;;
21800;SDS011;11062;51.164;16.924;2023-04-24T15:22:28;3.63;;;2.47;;
21800;SDS011;11062;51.164;16.924;2023-04-24T15:24:54;5.78;;;2.58;;
21800;SDS011;11062;51.164;16.924;2023-04-24T15:27:21;5.57;;;2.10;;
21800;SDS011;11062;51.164;16.924;2023-04-24T15:29:47;3.72;;;2.00;;
21800;SDS011;11062;51.164;16.924;2023-04-24T15:32:15;2.55;;;1.90;;
21800;SDS011;11062;51.164;16.924;2023-04-24T15:34:44;5.03;;;2.08;;
21800;SDS011;11062;51.164;16.924;2023-04-24T15:37:10;2.38;;;1.70;;
21800;SDS011;11062;51.164;16.924;2023-04-24T15:39:36;3.25;;;2.50;;
21800;SDS011;11062;51.164;16.924;2023-04-24T15:42:02;2.40;;;1.83;;
21800;SDS011;11062;51.164;16.924;2023-04-24T15:44:31;4.15;;;2.10;;
21800;SDS011;11062;51.164;16.924;2023-04-24T15:46:59;5.13;;;2.33;;
21800;SDS011;11062;51.164;16.924;2023-04-24T15:49:26;2.50;;;1.88;;
21800;SDS011;11062;51.164;16.924;2023-04-24T15:51:52;4.60;;;2.05;;
21800;SDS011;11062;51.164;16.924;2023-04-24T15:54:18;3.92;;;1.92;;
21800;SDS011;11062;51.164;16.924;2023-04-24T15:56:45;2.78;;;1.67;;
21800;SDS011;11062;51.164;16.924;2023-04-24T15:59:14;3.13;;;1.73;;
21800;SDS011;11062;51.164;16.924;2023-04-24T16:01:42;3.17;;;1.75;;
21800;SDS011;11062;51.164;16.924;2023-04-24T16:04:08;3.33;;;1.55;;
21800;SDS011;11062;51.164;16.924;2023-04-24T16:06:34;3.63;;;2.08;;
21800;SDS011;11062;51.164;16.924;2023-04-24T16:09:00;5.30;;;2.47;;
21800;SDS011;11062;51.164;16.924;2023-04-24T16:11:26;3.45;;;2.30;;
21800;SDS011;11062;51.164;16.924;2023-04-24T16:13:56;3.53;;;2.30;;
21800;SDS011;11062;51.164;16.924;2023-04-24T16:16:26;2.90;;;1.85;;
21800;SDS011;11062;51.164;16.924;2023-04-24T16:18:52;3.90;;;1.90;;
21800;SDS011;11062;51.164;16.924;2023-04-24T16:21:26;3.53;;;2.40;;
21800;SDS011;11062;51.164;16.924;2023-04-24T16:23:52;4.05;;;2.28;;
21800;SDS011;11062;51.164;16.924;2023-04-24T16:26:21;3.00;;;2.50;;
21800;SDS011;11062;51.164;16.924;2023-04-24T16:28:47;3.88;;;2.17;;
21800;SDS011;11062;51.164;16.924;2023-04-24T16:31:13;5.68;;;2.80;;
21800;SDS011;11062;51.164;16.924;2023-04-24T16:33:42;3.78;;;2.40;;
21800;SDS011;11062;51.164;16.924;2023-04-24T16:36:08;7.18;;;2.63;;